Time;durP1;ratioP1;P1;durP2;ratioP2;P2;SDS_P1;SDS_P2;PMS_P1;PMS_P2;Temp;Humidity;BMP_temperature;BMP_pressure;BME280_temperature;BME280_humidity;BME280_pressure;Samples;Min_cycle;Max_cycle;Signal;HPM_P1;HPM_P2
2021/10/18 00:00:19;;;;;;;11.87;9.43;;;;;;;6.31;57.60;100682.31;1690252;83;21102;-57
2021/10/18 00:02:45;;;;;;;11.53;8.60;;;;;;;6.32;57.60;100680.84;1650443;85;21014;-59
2021/10/18 00:05:14;;;;;;;10.50;8.73;;;;;;;6.34;57.89;100677.55;1652190;85;21868;-59
2021/10/18 00:07:40;;;;;;;12.10;8.40;;;;;;;6.36;57.83;100679.55;1639439;85;21184;-61
2021/10/18 00:10:09;;;;;;;13.67;8.43;;;;;;;6.36;57.80;100668.14;1653584;85;21113;-61
2021/10/18 00:12:37;;;;;;;9.33;8.23;;;;;;;6.36;57.82;100664.98;1652493;84;21028;-59
2021/10/18 00:15:05;;;;;;;11.28;8.45;;;;;;;6.37;57.75;100664.52;1673358;84;20997;-59
2021/10/18 00:17:32;;;;;;;11.10;8.70;;;;;;;6.39;57.71;100660.72;1672293;84;21596;-59
2021/10/18 00:19:59;;;;;;;15.80;8.60;;;;;;;6.39;57.81;100654.11;1669654;84;20957;-60
2021/10/18 00:22:25;;;;;;;11.53;8.48;;;;;;;6.41;57.86;100653.96;1665991;84;21038;-59
2021/10/18 00:24:53;;;;;;;11.27;8.77;;;;;;;6.43;57.58;100654.13;1674105;84;20998;-59
2021/10/18 00:27:19;;;;;;;14.65;8.65;;;;;;;6.42;57.63;100655.13;1657907;84;21896;-55
2021/10/18 00:29:45;;;;;;;11.08;8.85;;;;;;;6.43;57.68;100655.95;1698732;82;22618;-59
2021/10/18 00:32:11;;;;;;;10.28;8.05;;;;;;;6.43;57.55;100658.61;1673393;83;21168;-58
2021/10/18 00:34:37;;;;;;;12.65;8.90;;;;;;;6.42;57.56;100654.28;1653191;83;21061;-59
2021/10/18 00:37:03;;;;;;;13.70;8.63;;;;;;;6.41;57.57;100654.78;1642525;86;21065;-59
2021/10/18 00:39:29;;;;;;;15.80;7.53;;;;;;;6.42;57.73;100660.90;1643147;86;22021;-60
2021/10/18 00:41:57;;;;;;;14.50;9.53;;;;;;;6.23;57.63;100631.46;1641801;86;21161;-58
2021/10/18 00:44:23;;;;;;;8.90;7.45;;;;;;;6.39;57.88;100660.72;1646002;86;21149;-56
2021/10/18 00:46:49;;;;;;;12.40;8.73;;;;;;;6.36;57.88;100657.05;1637418;85;21132;-59
2021/10/18 00:49:18;;;;;;;14.20;8.03;;;;;;;6.34;58.03;100652.91;1652782;85;21021;-58
2021/10/18 00:51:46;;;;;;;15.90;8.37;;;;;;;6.30;58.11;100649.73;1682865;84;21100;-59
2021/10/18 00:54:13;;;;;;;10.20;7.80;;;;;;;6.28;58.20;100654.84;1678166;84;21058;-58
2021/10/18 00:56:39;;;;;;;12.85;8.40;;;;;;;6.26;58.19;100656.31;1656504;84;21013;-59
2021/10/18 00:59:07;;;;;;;10.53;7.78;;;;;;;6.26;58.33;100654.17;1700648;83;21085;-58
2021/10/18 01:01:33;;;;;;;11.37;8.50;;;;;;;6.23;58.41;100657.47;1661924;86;21116;-59
2021/10/18 01:04:03;;;;;;;9.30;7.53;;;;;;;6.22;58.49;100656.28;1690044;83;21844;-57
2021/10/18 01:06:30;;;;;;;11.70;7.00;;;;;;;6.22;58.62;100656.28;1652670;85;21045;-58
2021/10/18 01:08:57;;;;;;;10.93;7.05;;;;;;;6.22;58.55;100651.81;1658741;84;21060;-58
2021/10/18 01:11:23;;;;;;;10.03;7.10;;;;;;;6.22;58.48;100648.34;1668269;83;21224;-58
2021/10/18 01:13:49;;;;;;;8.25;6.67;;;;;;;6.20;58.54;100650.31;1682685;83;21063;-58
2021/10/18 01:16:15;;;;;;;10.20;6.75;;;;;;;6.19;58.61;100645.98;1663385;84;21025;-59
2021/10/18 01:18:42;;;;;;;9.73;7.95;;;;;;;6.17;58.58;100645.31;1655193;84;21115;-57
2021/10/18 01:21:08;;;;;;;8.08;6.95;;;;;;;6.16;58.57;100647.61;1682601;83;21776;-58
2021/10/18 01:23:35;;;;;;;10.43;7.23;;;;;;;6.13;58.73;100642.64;1662098;84;21202;-57
2021/10/18 01:26:01;;;;;;;10.13;7.12;;;;;;;6.13;58.81;100643.95;1679616;83;21403;-58
2021/10/18 01:28:27;;;;;;;9.08;7.20;;;;;;;6.12;58.75;100647.11;1668684;85;21956;-57
2021/10/18 01:30:53;;;;;;;10.60;7.83;;;;;;;6.10;58.81;100641.60;1660029;84;21303;-58
2021/10/18 01:33:19;;;;;;;12.55;6.97;;;;;;;6.07;58.88;100644.58;1657944;84;21077;-58
2021/10/18 01:35:46;;;;;;;8.28;6.80;;;;;;;6.02;59.01;100643.19;1685349;83;20986;-56
2021/10/18 01:38:12;;;;;;;;;;;;;;;5.99;59.01;100642.66;1700671;83;21798;-57
2021/10/18 01:40:38;;;;;;;10.60;7.23;;;;;;;5.97;59.21;100644.16;1700305;84;20303;-58
2021/10/18 01:43:04;;;;;;;8.20;6.25;;;;;;;5.89;59.34;100636.08;1685698;84;21016;-58
2021/10/18 01:45:31;;;;;;;11.55;6.83;;;;;;;5.87;59.52;100638.05;1679115;83;21026;-56
2021/10/18 01:47:57;;;;;;;9.88;8.08;;;;;;;5.85;59.64;100642.16;1652368;85;21106;-56
2021/10/18 01:50:26;;;;;;;9.18;6.42;;;;;;;5.85;59.60;100647.95;1701271;83;21830;-58
2021/10/18 01:52:53;;;;;;;8.73;7.10;;;;;;;5.86;59.71;100653.60;1659614;84;21105;-57
2021/10/18 01:55:22;;;;;;;9.20;7.67;;;;;;;5.85;59.75;100647.95;1659811;85;21950;-57
2021/10/18 01:57:51;;;;;;;11.77;6.80;;;;;;;5.84;59.71;100644.48;1668630;84;21061;-56
2021/10/18 02:00:18;;;;;;;9.23;6.40;;;;;;;5.88;59.75;100641.52;1685466;83;21773;-55
2021/10/18 02:02:46;;;;;;;11.77;7.20;;;;;;;5.90;59.88;100647.02;1683876;85;21324;-55
2021/10/18 02:05:12;;;;;;;7.93;6.60;;;;;;;5.88;59.90;100643.70;1700627;83;21057;-56
2021/10/18 02:07:38;;;;;;;8.30;6.25;;;;;;;5.88;60.00;100648.98;1671988;85;21072;-58
2021/10/18 02:10:07;;;;;;;10.87;6.47;;;;;;;5.88;60.02;100642.38;1686462;83;21340;-58
2021/10/18 02:12:35;;;;;;;7.20;6.50;;;;;;;5.91;60.11;100643.87;1688302;83;21045;-59
2021/10/18 02:15:01;;;;;;;;;;;;;;;5.92;60.04;100641.59;1663296;85;21056;-57
2021/10/18 02:17:27;;;;;;;11.33;7.43;;;;;;;5.90;59.89;100648.34;1674981;83;20168;-59
2021/10/18 02:19:54;;;;;;;9.48;6.53;;;;;;;5.85;60.02;100641.34;1674435;83;21092;-57
2021/10/18 02:22:20;;;;;;;9.38;6.95;;;;;;;5.85;60.13;100647.95;1665568;85;22008;-56
2021/10/18 02:24:46;;;;;;;10.25;6.15;;;;;;;5.82;59.87;100645.12;1672576;83;21069;-56
2021/10/18 02:27:12;;;;;;;11.00;6.25;;;;;;;5.78;60.07;100649.06;1668518;84;21067;-56
2021/10/18 02:29:39;;;;;;;9.43;7.12;;;;;;;5.75;60.31;100644.56;1691775;83;21919;-57
2021/10/18 02:32:06;;;;;;;11.20;6.53;;;;;;;5.73;60.33;100641.23;1678342;84;21025;-58
2021/10/18 02:34:33;;;;;;;9.50;7.20;;;;;;;5.73;60.19;100638.09;1674289;83;21410;-55
2021/10/18 02:37:00;;;;;;;8.58;6.45;;;;;;;5.75;60.34;100638.77;1662109;86;21097;-57
2021/10/18 02:39:26;;;;;;;6.58;5.97;;;;;;;5.83;60.24;100627.44;1694175;83;21042;-56
2021/10/18 02:41:52;;;;;;;9.25;6.00;;;;;;;5.98;59.94;100633.06;1650935;86;21313;-58
2021/10/18 02:44:18;;;;;;;12.73;6.75;;;;;;;6.04;59.75;100622.69;1691015;83;21421;-58
2021/10/18 02:46:44;;;;;;;10.20;6.65;;;;;;;6.15;59.45;100620.81;1663451;84;21072;-58
2021/10/18 02:49:10;;;;;;;9.95;7.75;;;;;;;6.27;59.52;100631.98;1651507;84;21053;-57
2021/10/18 02:51:37;;;;;;;9.55;7.08;;;;;;;6.34;59.46;100630.39;1692412;83;21891;-57
2021/10/18 02:54:05;;;;;;;8.35;6.53;;;;;;;6.38;59.25;100633.89;1662345;85;21067;-57
2021/10/18 02:56:32;;;;;;;9.27;5.93;;;;;;;6.42;59.17;100632.63;1654080;84;21068;-57
2021/10/18 02:58:58;;;;;;;11.75;7.40;;;;;;;6.47;59.00;100627.36;1699779;83;21376;-56
2021/10/18 03:01:24;;;;;;;17.10;8.98;;;;;;;6.50;58.72;100627.88;1694957;83;21095;-57
2021/10/18 03:03:50;;;;;;;14.55;8.43;;;;;;;6.54;58.46;100623.94;1696225;83;21169;-61
2021/10/18 03:06:17;;;;;;;12.13;8.95;;;;;;;6.58;58.26;100625.28;1686042;83;21156;-57
2021/10/18 03:08:42;;;;;;;11.68;9.08;;;;;;;6.63;58.07;100624.33;1687710;83;21145;-57
2021/10/18 03:11:08;;;;;;;15.20;10.00;;;;;;;6.69;58.02;100626.84;1710376;82;21030;-58
2021/10/18 03:13:34;;;;;;;12.75;8.45;;;;;;;6.72;57.91;100624.37;1712565;82;21070;-57
2021/10/18 03:16:01;;;;;;;12.45;9.23;;;;;;;6.73;57.87;100620.24;1718898;82;21038;-57
2021/10/18 03:18:27;;;;;;;;;;;;;;;6.74;57.92;100619.74;1718609;82;21093;-57
2021/10/18 03:20:53;;;;;;;10.70;8.27;;;;;;;6.79;58.07;100624.91;1719926;82;20229;-57
2021/10/18 03:23:21;;;;;;;11.67;8.53;;;;;;;6.76;58.13;100619.09;1717799;82;21336;-58
2021/10/18 03:25:48;;;;;;;11.88;8.88;;;;;;;6.79;58.04;100609.02;1649513;85;21037;-58
2021/10/18 03:28:14;;;;;;;15.23;9.53;;;;;;;6.85;57.92;100610.20;1706940;82;21335;-57
2021/10/18 03:30:40;;;;;;;12.53;8.45;;;;;;;6.90;57.47;100607.09;1709389;82;21121;-60
2021/10/18 03:33:06;;;;;;;12.43;8.50;;;;;;;6.95;57.38;100606.96;1710361;82;21065;-56
2021/10/18 03:35:34;;;;;;;11.10;8.37;;;;;;;6.99;57.42;100608.80;1714538;82;21375;-58
2021/10/18 03:38:00;;;;;;;11.70;8.53;;;;;;;7.01;57.34;100606.83;1715335;82;21105;-58
2021/10/18 03:40:26;;;;;;;10.60;8.55;;;;;;;7.05;56.93;100606.84;1707157;82;21837;-58
2021/10/18 03:42:52;;;;;;;12.75;8.50;;;;;;;7.09;56.85;100603.37;1705104;82;21766;-57
2021/10/18 03:45:18;;;;;;;12.68;9.15;;;;;;;7.09;56.62;100601.55;1712797;82;21097;-58
2021/10/18 03:47:45;;;;;;;10.40;8.75;;;;;;;7.10;56.72;100596.59;1712225;82;21118;-60
2021/10/18 03:50:11;;;;;;;17.10;9.23;;;;;;;7.11;56.76;100593.44;1636371;85;21924;-59
2021/10/18 03:52:37;;;;;;;13.07;8.87;;;;;;;7.12;56.69;100591.96;1700238;82;21089;-58
2021/10/18 03:55:05;;;;;;;9.40;7.85;;;;;;;7.08;56.56;100573.37;1709249;82;21140;-58
2021/10/18 03:57:31;;;;;;;10.33;7.30;;;;;;;7.17;56.55;100580.36;1705006;82;21089;-56
2021/10/18 03:59:57;;;;;;;12.07;8.30;;;;;;;7.19;56.54;100585.52;1715253;82;21065;-57
2021/10/18 04:02:23;;;;;;;10.08;8.55;;;;;;;7.20;56.36;100588.52;1677547;83;21090;-56
2021/10/18 04:04:49;;;;;;;8.53;7.67;;;;;;;7.20;56.36;100585.86;1686431;84;21118;-58
2021/10/18 04:07:15;;;;;;;11.90;8.95;;;;;;;7.20;56.37;100584.03;1685712;84;21812;-57
2021/10/18 04:09:41;;;;;;;9.85;7.95;;;;;;;7.18;56.48;100582.04;1684397;84;21841;-59
2021/10/18 04:12:07;;;;;;;10.63;8.05;;;;;;;7.17;56.66;100583.02;1675683;84;21875;-57
2021/10/18 04:14:34;;;;;;;11.30;8.57;;;;;;;7.17;56.74;100585.66;1692253;83;21057;-57
2021/10/18 04:17:00;;;;;;;11.73;8.53;;;;;;;7.18;56.84;100589.17;1690110;83;21123;-57
2021/10/18 04:19:26;;;;;;;9.35;8.48;;;;;;;7.15;56.78;100590.30;1682230;83;21325;-58
2021/10/18 04:21:52;;;;;;;12.18;8.45;;;;;;;7.13;56.96;100588.81;1691370;83;21420;-59
2021/10/18 04:24:18;;;;;;;9.08;7.95;;;;;;;7.13;57.03;100590.95;1691272;83;21031;-57
2021/10/18 04:26:44;;;;;;;10.30;8.28;;;;;;;7.15;57.15;100596.92;1687560;84;21027;-57
2021/10/18 04:29:10;;;;;;;14.03;8.95;;;;;;;7.15;57.13;100596.92;1681112;83;21015;-57
2021/10/18 04:31:37;;;;;;;11.18;8.25;;;;;;;7.15;57.20;100595.59;1689761;83;21728;-60
2021/10/18 04:34:03;;;;;;;9.20;7.75;;;;;;;7.16;57.26;100597.78;1688022;81;21824;-59
2021/10/18 04:36:30;;;;;;;9.85;8.83;;;;;;;7.20;57.27;100597.28;1692158;84;21805;-58
2021/10/18 04:38:56;;;;;;;;;;;;;;;7.23;57.25;100596.63;1660214;86;21042;-58
2021/10/18 04:41:22;;;;;;;14.40;7.93;;;;;;;7.23;57.28;100597.45;1657416;86;20162;-58
2021/10/18 04:43:48;;;;;;;9.55;8.03;;;;;;;7.18;57.48;100600.59;1648132;86;21080;-60
2021/10/18 04:46:15;;;;;;;12.75;8.13;;;;;;;7.18;57.55;100601.92;1688655;84;21229;-58
2021/10/18 04:48:41;;;;;;;11.63;8.18;;;;;;;7.19;57.65;100607.54;1691259;84;21057;-58
2021/10/18 04:51:07;;;;;;;12.03;8.68;;;;;;;7.18;57.77;100603.25;1694382;84;21835;-59
2021/10/18 04:53:34;;;;;;;13.72;8.90;;;;;;;7.19;57.82;100603.56;1692153;84;21374;-58
2021/10/18 04:56:00;;;;;;;10.63;8.03;;;;;;;7.15;57.80;100596.10;1661567;85;21284;-59
2021/10/18 04:58:28;;;;;;;9.58;7.33;;;;;;;7.20;57.79;100602.59;1697887;84;21279;-56
2021/10/18 05:00:57;;;;;;;8.00;7.13;;;;;;;7.16;57.91;100599.93;1691715;84;21077;-59
2021/10/18 05:03:24;;;;;;;13.33;9.07;;;;;;;7.21;58.03;100610.89;1696991;84;21074;-57
2021/10/18 05:05:51;;;;;;;12.83;8.83;;;;;;;7.21;58.05;100612.69;1695066;84;21069;-57
2021/10/18 05:08:18;;;;;;;14.37;7.97;;;;;;;7.23;58.05;100613.86;1685779;84;21177;-56
2021/10/18 05:10:45;;;;;;;13.18;7.28;;;;;;;7.28;58.14;100615.05;1642985;86;21066;-60
2021/10/18 05:13:13;;;;;;;16.80;9.57;;;;;;;7.31;58.05;100621.84;1694504;84;21133;-60
2021/10/18 05:15:39;;;;;;;14.67;7.97;;;;;;;7.36;58.07;100622.20;1693153;83;21022;-61
2021/10/18 05:18:05;;;;;;;27.50;8.40;;;;;;;7.42;58.06;100624.20;1691073;83;21033;-57
2021/10/18 05:20:34;;;;;;;14.80;7.80;;;;;;;7.46;58.09;100625.56;1694207;83;21118;-58
2021/10/18 05:23:01;;;;;;;10.60;7.73;;;;;;;7.49;58.01;100622.57;1695863;83;21045;-58
2021/10/18 05:25:28;;;;;;;12.25;8.73;;;;;;;7.49;58.07;100627.88;1690083;83;21951;-57
2021/10/18 05:27:55;;;;;;;13.47;8.67;;;;;;;7.47;57.97;100629.86;1682209;83;21875;-57
2021/10/18 05:30:24;;;;;;;15.57;8.57;;;;;;;7.47;58.05;100636.49;1690840;83;21081;-57
2021/10/18 05:32:49;;;;;;;11.23;7.77;;;;;;;7.50;58.05;100634.86;1693270;83;21349;-59
2021/10/18 05:35:15;;;;;;;9.53;8.20;;;;;;;7.52;58.03;100636.03;1690862;83;21304;-58
2021/10/18 05:37:43;;;;;;;12.68;9.05;;;;;;;7.52;58.02;100642.16;1685094;84;21495;-57
2021/10/18 05:40:12;;;;;;;13.93;8.50;;;;;;;7.52;58.04;100636.84;1685348;84;21094;-57
2021/10/18 05:42:39;;;;;;;15.57;8.63;;;;;;;7.53;58.32;100642.47;1680773;84;21086;-58
2021/10/18 05:45:06;;;;;;;;;;;;;;;7.56;58.15;100642.16;1685469;84;21033;-59
2021/10/18 05:47:33;;;;;;;;;;;;;;;7.59;58.16;100650.28;1693961;84;20187;-58
2021/10/18 05:50:00;;;;;;;14.23;8.83;;;;;;;7.59;58.21;100648.95;1690522;84;20206;-60
2021/10/18 05:52:28;;;;;;;;;;;;;;;7.57;58.30;100650.47;1695404;84;21290;-58
2021/10/18 05:54:55;;;;;;;21.97;14.07;;;;;;;7.61;58.29;100653.63;1688807;84;20182;-59
2021/10/18 05:57:21;;;;;;;22.60;13.70;;;;;;;7.59;58.36;100656.44;1690251;84;21674;-58
2021/10/18 05:59:47;;;;;;;22.15;15.23;;;;;;;7.61;58.40;100657.61;1689038;84;21115;-59
2021/10/18 06:02:13;;;;;;;15.88;11.60;;;;;;;7.64;58.38;100656.45;1692657;83;21030;-62
2021/10/18 06:04:44;;;;;;;15.53;12.55;;;;;;;7.67;58.49;100658.79;1688929;83;21077;-62
2021/10/18 06:07:08;;;;;;;15.67;11.10;;;;;;;7.69;58.47;100662.11;1673209;83;21839;-59
2021/10/18 06:09:34;;;;;;;;;;;;;;;7.72;58.39;100661.77;1686558;83;21876;-62
2021/10/18 06:12:00;;;;;;;17.70;9.97;;;;;;;7.74;58.46;100667.27;1690983;82;20162;-59
2021/10/18 06:14:26;;;;;;;16.07;10.43;;;;;;;7.74;58.57;100665.09;1673660;83;21313;-60
2021/10/18 06:16:52;;;;;;;15.28;10.03;;;;;;;7.80;58.48;100672.42;1689885;83;21060;-58
2021/10/18 06:19:18;;;;;;;14.47;10.98;;;;;;;7.83;58.41;100673.41;1720302;83;21854;-60
2021/10/18 06:21:45;;;;;;;16.00;10.20;;;;;;;7.79;58.30;100660.13;1682700;83;21296;-60
2021/10/18 06:24:11;;;;;;;12.50;9.73;;;;;;;7.85;58.28;100674.08;1685029;83;21145;-60
2021/10/18 06:26:37;;;;;;;15.08;8.30;;;;;;;7.85;58.34;100673.25;1684047;83;21094;-58
2021/10/18 06:29:03;;;;;;;15.20;9.40;;;;;;;7.86;58.27;100678.91;1676133;83;22003;-58
2021/10/18 06:31:30;;;;;;;13.23;9.10;;;;;;;7.86;58.28;100682.38;1688671;83;21089;-60
2021/10/18 06:33:56;;;;;;;13.20;9.58;;;;;;;7.78;58.37;100680.54;1677381;83;21128;-58
2021/10/18 06:36:24;;;;;;;16.27;8.90;;;;;;;7.75;58.48;100681.36;1684883;84;21017;-59
2021/10/18 06:38:50;;;;;;;12.43;8.40;;;;;;;7.76;58.80;100681.67;1688321;83;21300;-57
2021/10/18 06:41:16;;;;;;;12.70;8.08;;;;;;;7.77;58.83;100675.39;1705260;83;21371;-58
2021/10/18 06:43:42;;;;;;;13.40;8.80;;;;;;;7.68;58.89;100674.52;1686539;83;21125;-59
2021/10/18 06:46:09;;;;;;;17.20;9.13;;;;;;;7.72;58.87;100684.32;1690911;83;21347;-59
2021/10/18 06:48:37;;;;;;;13.72;8.60;;;;;;;7.72;59.00;100682.52;1666868;85;21058;-60
2021/10/18 06:51:03;;;;;;;15.53;8.10;;;;;;;7.77;59.06;100684.67;1690178;83;21789;-59
2021/10/18 06:53:32;;;;;;;16.75;9.15;;;;;;;7.80;59.03;100691.82;1692058;83;21057;-60
2021/10/18 06:56:01;;;;;;;13.70;8.97;;;;;;;7.83;59.27;100685.85;1686471;83;21037;-60
2021/10/18 06:58:26;;;;;;;15.30;9.37;;;;;;;7.88;59.26;100696.32;1693901;83;21114;-58
2021/10/18 07:00:52;;;;;;;14.05;8.88;;;;;;;7.94;59.02;100691.68;1689646;83;21106;-60
2021/10/18 07:03:18;;;;;;;13.30;9.20;;;;;;;8.01;58.99;100693.20;1691956;84;21152;-60
2021/10/18 07:05:45;;;;;;;;;;;;;;;8.06;58.90;100698.86;1695322;84;21057;-59
2021/10/18 07:08:11;;;;;;;16.70;8.87;;;;;;;8.12;58.95;100696.05;1692987;84;20134;-59
2021/10/18 07:10:37;;;;;;;14.40;9.00;;;;;;;8.12;58.84;100693.39;1691588;83;21090;-58
2021/10/18 07:13:05;;;;;;;15.88;9.00;;;;;;;8.16;58.80;100694.73;1679317;83;21088;-61
2021/10/18 07:15:31;;;;;;;15.60;9.23;;;;;;;8.18;58.72;100692.23;1694112;83;21804;-59
2021/10/18 07:17:58;;;;;;;12.95;9.40;;;;;;;8.19;58.62;100695.70;1657455;85;21062;-61
2021/10/18 07:20:24;;;;;;;17.83;9.33;;;;;;;8.19;58.69;100702.34;1619172;86;21043;-60
2021/10/18 07:22:55;;;;;;;12.70;9.83;;;;;;;8.16;58.77;100696.88;1684202;84;21189;-59
2021/10/18 07:25:20;;;;;;;15.50;10.60;;;;;;;8.19;58.84;100703.20;1691134;83;21053;-59
2021/10/18 07:27:46;;;;;;;16.83;10.57;;;;;;;8.19;58.82;100694.37;1691596;84;21070;-59
2021/10/18 07:30:13;;;;;;;16.45;11.55;;;;;;;8.21;58.89;100691.06;1685243;84;21062;-61
2021/10/18 07:32:42;;;;;;;14.93;11.05;;;;;;;8.21;58.88;100692.89;1693417;84;21082;-60
2021/10/18 07:35:08;;;;;;;15.33;10.30;;;;;;;8.20;58.91;100688.09;1692219;83;21049;-61
2021/10/18 07:37:35;;;;;;;17.57;10.40;;;;;;;8.26;58.89;100680.78;1691671;83;21142;-58
2021/10/18 07:40:01;;;;;;;;;;;;;;;8.34;58.97;100678.16;1694553;83;21893;-58
2021/10/18 07:42:27;;;;;;;13.83;9.30;;;;;;;8.44;58.62;100681.15;1687954;83;20606;-61
2021/10/18 07:44:54;;;;;;;13.83;10.48;;;;;;;8.48;58.33;100685.16;1692510;84;21801;-58
2021/10/18 07:47:22;;;;;;;13.67;9.90;;;;;;;8.51;58.30;100680.34;1691422;83;21074;-59
2021/10/18 07:49:49;;;;;;;14.43;9.40;;;;;;;8.58;58.40;100676.51;1659686;85;21114;-59
2021/10/18 07:52:16;;;;;;;12.15;9.13;;;;;;;8.69;58.20;100675.34;1691113;83;21054;-58
2021/10/18 07:54:43;;;;;;;16.73;10.43;;;;;;;8.74;57.98;100681.00;1693936;83;21931;-59
2021/10/18 07:57:10;;;;;;;12.70;9.97;;;;;;;8.80;57.99;100679.47;1693420;83;20991;-61
2021/10/18 07:59:36;;;;;;;;;;;;;;;8.88;57.96;100678.14;1706064;83;21046;-60
2021/10/18 08:02:03;;;;;;;16.83;10.53;;;;;;;8.99;57.46;100680.45;1684060;84;20144;-57
2021/10/18 08:04:29;;;;;;;15.40;10.87;;;;;;;9.02;57.50;100680.59;1691148;84;21169;-61
2021/10/18 08:06:55;;;;;;;18.45;10.93;;;;;;;9.10;57.52;100680.59;1680537;84;21356;-59
2021/10/18 08:09:23;;;;;;;15.90;10.73;;;;;;;9.19;57.19;100677.39;1682034;84;21075;-59
2021/10/18 08:11:50;;;;;;;15.33;10.93;;;;;;;9.26;56.90;100677.87;1680066;84;21041;-58
2021/10/18 08:14:19;;;;;;;17.35;10.23;;;;;;;9.31;56.73;100682.18;1695672;84;21110;-60
2021/10/18 08:16:46;;;;;;;15.93;11.87;;;;;;;9.39;56.67;100683.16;1690860;84;21300;-59
2021/10/18 08:19:12;;;;;;;;;;;;;;;9.41;56.58;100689.95;1702677;84;21840;-58
2021/10/18 08:21:38;;;;;;;13.93;9.90;;;;;;;9.47;56.61;100681.78;1683016;84;20145;-59
2021/10/18 08:24:05;;;;;;;20.77;11.90;;;;;;;9.49;56.37;100684.63;1696472;84;21121;-59
2021/10/18 08:26:32;;;;;;;20.47;11.17;;;;;;;9.46;56.30;100678.81;1701991;84;21062;-59
2021/10/18 08:28:58;;;;;;;25.40;10.23;;;;;;;9.44;56.56;100669.67;1699630;84;21378;-58
2021/10/18 08:31:24;;;;;;;15.98;11.75;;;;;;;9.49;56.37;100678.45;1697945;84;21890;-60
2021/10/18 08:33:50;;;;;;;;;;;;;;;9.52;56.23;100673.61;1681890;84;21068;-59
2021/10/18 08:36:16;;;;;;;13.90;10.23;;;;;;;9.55;56.25;100677.27;1678290;83;20134;-61
2021/10/18 08:39:55;;;;;;;13.93;10.32;;;;;;;9.57;56.49;100673.11;1661933;85;21009;-58
2021/10/18 08:46:25;;;;;;;15.00;11.93;;;;;;;9.87;55.97;100672.78;1674327;83;21053;-58
2021/10/18 08:48:56;;;;;;;16.67;10.43;;;;;;;9.95;55.65;100669.23;1673708;83;21058;-57
2021/10/18 08:51:23;;;;;;;12.93;9.63;;;;;;;9.97;55.63;100662.41;1684857;84;21362;-60
2021/10/18 08:53:49;;;;;;;16.13;9.47;;;;;;;10.01;55.53;100666.38;1682191;83;21355;-62
2021/10/18 08:56:16;;;;;;;15.43;10.60;;;;;;;10.08;55.26;100671.33;1685550;84;21094;-60
2021/10/18 08:58:43;;;;;;;14.50;10.73;;;;;;;10.08;54.96;100669.48;1681158;84;21022;-60
2021/10/18 09:01:09;;;;;;;17.70;11.12;;;;;;;10.04;54.87;100674.84;1683180;84;21214;-58
2021/10/18 09:03:36;;;;;;;;;;;;;;;10.00;55.13;100666.03;1680985;84;21043;-58
2021/10/18 09:06:23;;;;;;;19.12;10.85;;;;;;;9.98;55.33;100670.71;1690188;84;20152;-60
2021/10/18 09:08:53;;;;;;;17.45;10.72;;;;;;;9.94;55.51;100663.09;1635470;87;21119;-61
2021/10/18 09:11:23;;;;;;;15.60;9.67;;;;;;;10.03;55.36;100672.35;1645855;86;21338;-59
2021/10/18 09:14:00;;;;;;;17.33;11.40;;;;;;;10.10;55.39;100667.98;1648391;85;21077;-61
2021/10/18 09:16:36;;;;;;;16.97;12.03;;;;;;;10.21;54.95;100666.23;1692270;83;21078;-61
2021/10/18 09:19:18;;;;;;;13.13;10.23;;;;;;;10.25;54.67;100658.20;1677240;84;21273;-59
2021/10/18 09:21:56;;;;;;;14.87;10.43;;;;;;;10.31;54.64;100656.19;1688254;83;20989;-61
2021/10/18 09:24:34;;;;;;;20.00;11.03;;;;;;;10.36;54.38;100657.48;1678695;83;21768;-58
2021/10/18 09:27:09;;;;;;;15.80;10.77;;;;;;;10.41;54.36;100661.27;1696729;84;21071;-61
2021/10/18 09:29:44;;;;;;;14.43;10.23;;;;;;;10.42;54.00;100655.45;1695319;84;21292;-59
2021/10/18 09:32:20;;;;;;;16.30;10.37;;;;;;;10.42;54.20;100652.79;1678816;84;21068;-59
2021/10/18 09:34:48;;;;;;;15.97;10.60;;;;;;;10.47;54.05;100647.73;1688990;83;21037;-61
2021/10/18 09:37:16;;;;;;;13.07;10.27;;;;;;;10.47;54.14;100637.06;1691668;83;21400;-60
2021/10/18 09:39:45;;;;;;;12.67;10.60;;;;;;;10.60;53.56;100642.61;1693865;83;21093;-60
2021/10/18 09:42:15;;;;;;;15.37;11.40;;;;;;;10.73;53.70;100649.17;1681600;83;21039;-60
2021/10/18 09:45:24;;;;;;;16.57;10.40;;;;;;;10.83;52.70;100643.91;1691915;84;21082;-61
2021/10/18 10:52:52;;;;;;;12.63;9.00;;;;;;;11.46;49.91;100602.14;1619946;87;21258;-61
2021/10/18 10:55:24;;;;;;;16.55;9.90;;;;;;;11.48;49.96;100598.77;1635318;85;21052;-60
2021/10/18 10:57:53;;;;;;;;;;;;;;;11.48;49.98;100599.59;1645546;86;21951;-59
2021/10/18 11:00:39;;;;;;;9.60;8.57;;;;;;;11.46;50.30;100587.45;1645837;86;20231;-60
2021/10/18 11:03:41;;;;;;;8.88;7.35;;;;;;;11.53;49.99;100596.37;1667041;84;21908;-59
2021/10/18 11:06:15;;;;;;;11.60;7.58;;;;;;;11.61;49.04;100588.75;1670276;84;21084;-59
2021/10/18 11:08:45;;;;;;;15.73;9.93;;;;;;;11.64;49.12;100593.70;1657569;84;21002;-59
2021/10/18 11:11:16;;;;;;;13.67;9.77;;;;;;;11.70;48.95;100587.62;1655888;84;21141;-61
2021/10/18 11:13:56;;;;;;;18.87;10.70;;;;;;;11.77;48.59;100585.85;1622646;87;21072;-61
2021/10/18 11:16:26;;;;;;;10.65;9.08;;;;;;;11.77;48.49;100582.33;1663695;84;21047;-63
2021/10/18 11:18:58;;;;;;;11.22;8.08;;;;;;;11.72;48.70;100580.77;1636053;86;21058;-60
2021/10/18 11:21:32;;;;;;;15.00;9.25;;;;;;;11.71;48.90;100583.92;1641511;85;21311;-61
2021/10/18 11:24:09;;;;;;;15.75;8.20;;;;;;;11.71;48.66;100590.59;1627174;85;21930;-58
2021/10/18 11:26:40;;;;;;;10.98;6.92;;;;;;;11.74;48.45;100580.06;1621833;86;21320;-59
2021/10/18 11:29:10;;;;;;;9.05;8.05;;;;;;;11.78;48.33;100588.83;1608051;86;21820;-60
2021/10/18 11:31:41;;;;;;;12.18;8.43;;;;;;;11.83;47.96;100582.93;1611721;86;21125;-59
2021/10/18 11:34:15;;;;;;;10.20;8.05;;;;;;;11.85;47.60;100582.23;1625218;86;21108;-63
2021/10/18 11:36:46;;;;;;;11.28;6.87;;;;;;;11.76;47.97;100570.83;1632865;86;21875;-59
2021/10/18 11:39:24;;;;;;;12.10;7.30;;;;;;;11.84;48.06;100580.05;1646662;86;21038;-61
2021/10/18 11:42:13;;;;;;;10.90;7.50;;;;;;;11.87;47.87;100575.67;1638187;86;22000;-59
2021/10/18 11:44:49;;;;;;;13.83;8.30;;;;;;;11.92;47.69;100569.77;1629633;86;21098;-60
2021/10/18 11:47:35;;;;;;;12.90;8.65;;;;;;;11.93;47.42;100573.29;1632272;86;21046;-61
2021/10/18 11:50:25;;;;;;;11.97;6.97;;;;;;;11.93;47.58;100577.30;1625352;86;21093;-61
2021/10/18 11:53:02;;;;;;;10.25;6.62;;;;;;;11.90;46.96;100569.66;1633941;86;21074;-59
2021/10/18 11:55:33;;;;;;;10.38;6.75;;;;;;;11.82;47.06;100574.06;1629962;86;21018;-61
2021/10/18 11:58:04;;;;;;;8.45;7.20;;;;;;;11.79;47.29;100576.29;1654904;85;21047;-59
2021/10/18 12:00:41;;;;;;;12.07;7.72;;;;;;;11.81;47.29;100575.10;1627589;86;21018;-62
2021/10/18 12:03:11;;;;;;;11.45;6.42;;;;;;;11.83;47.33;100574.92;1639732;85;21025;-60
2021/10/18 12:05:43;;;;;;;8.58;6.60;;;;;;;11.81;46.99;100572.92;1646815;85;21053;-59
2021/10/18 12:08:21;;;;;;;6.80;5.28;;;;;;;11.70;47.28;100568.93;1668760;84;21041;-61
2021/10/18 12:10:50;;;;;;;13.80;7.55;;;;;;;11.61;47.42;100573.55;1676710;84;20979;-60
2021/10/18 12:13:32;;;;;;;14.58;6.55;;;;;;;11.55;47.55;100569.50;1678255;83;21270;-60
2021/10/18 12:16:19;;;;;;;9.98;6.97;;;;;;;11.52;47.80;100573.86;1687804;83;21113;-59
2021/10/18 12:18:48;;;;;;;10.82;7.00;;;;;;;11.56;47.96;100572.47;1691961;83;21079;-61
2021/10/18 12:21:32;;;;;;;9.18;6.75;;;;;;;11.61;47.90;100570.06;1692742;83;21331;-61
2021/10/18 12:24:05;;;;;;;13.22;6.55;;;;;;;11.62;47.90;100567.21;1672515;83;21034;-60
2021/10/18 12:26:43;;;;;;;11.78;6.72;;;;;;;11.61;47.76;100566.88;1678454;83;21083;-60
2021/10/18 12:29:13;;;;;;;9.60;6.30;;;;;;;11.62;47.77;100567.21;1691576;83;21124;-60
2021/10/18 12:31:56;;;;;;;13.85;7.58;;;;;;;11.66;47.94;100569.00;1688640;83;21033;-60
2021/10/18 12:34:27;;;;;;;14.80;7.58;;;;;;;11.68;47.49;100577.13;1687389;83;21112;-59
2021/10/18 12:37:08;;;;;;;12.73;7.70;;;;;;;11.68;47.64;100571.78;1688054;83;21069;-59
2021/10/18 12:39:58;;;;;;;16.17;7.10;;;;;;;11.71;47.47;100567.90;1664030;83;21045;-60
2021/10/18 12:42:33;;;;;;;9.10;6.47;;;;;;;11.69;47.07;100568.59;1664818;83;21200;-59